Time;durP1;ratioP1;P1;durP2;ratioP2;P2;SDS_P1;SDS_P2;PMS_P1;PMS_P2;Temp;Humidity;BMP_temperature;BMP_pressure;BME280_temperature;BME280_humidity;BME280_pressure;Samples;Min_cycle;Max_cycle;Signal;HPM_P1;HPM_P2
2023/06/23 00:00:25;;;;;;;0.00;0.00;;;18.40;81.50;;;;;;5029355;28;20045;-65
2023/06/23 00:02:51;;;;;;;6.50;1.15;;;18.40;82.00;;;;;;5029323;28;20034;-66
2023/06/23 00:05:16;;;;;;;0.20;0.20;;;18.30;83.10;;;;;;5029242;28;20090;-66
2023/06/23 00:07:42;;;;;;;0.00;0.00;;;18.30;83.00;;;;;;5012105;28;20042;-66
2023/06/23 00:10:10;;;;;;;0.00;0.00;;;18.30;82.60;;;;;;5029451;28;20491;-65
2023/06/23 00:12:37;;;;;;;0.10;0.10;;;18.30;81.80;;;;;;5028844;28;20513;-66
2023/06/23 00:15:04;;;;;;;0.00;0.00;;;18.30;82.60;;;;;;5029229;28;20049;-65
2023/06/23 00:17:30;;;;;;;0.10;0.10;;;18.30;82.90;;;;;;5011366;28;20041;-66
2023/06/23 00:19:57;;;;;;;0.00;0.00;;;18.30;82.50;;;;;;5029302;28;20050;-65
2023/06/23 00:22:22;;;;;;;0.00;0.00;;;18.20;82.10;;;;;;5029510;28;20184;-65
2023/06/23 00:24:48;;;;;;;1.08;1.08;;;18.20;83.00;;;;;;5029338;28;20132;-66
2023/06/23 00:27:13;;;;;;;0.10;0.10;;;18.20;82.60;;;;;;5022495;28;20077;-65
2023/06/23 00:29:39;;;;;;;0.00;0.00;;;18.20;82.70;;;;;;5011109;28;20049;-66
2023/06/23 00:32:05;;;;;;;1.30;0.90;;;18.20;82.80;;;;;;5011426;28;20050;-66
2023/06/23 00:34:30;;;;;;;0.00;0.00;;;18.10;83.60;;;;;;5011329;28;20041;-66
2023/06/23 00:36:56;;;;;;;0.10;0.10;;;18.10;83.30;;;;;;5011159;28;20545;-65
2023/06/23 00:39:22;;;;;;;0.15;0.15;;;18.10;83.90;;;;;;5011605;28;20509;-65
2023/06/23 00:41:48;;;;;;;0.32;0.32;;;18.10;84.30;;;;;;5028799;28;20434;-65
2023/06/23 00:44:16;;;;;;;0.00;0.00;;;18.10;83.60;;;;;;5028824;28;20715;-66
2023/06/23 00:46:43;;;;;;;0.00;0.00;;;18.10;83.70;;;;;;5028997;28;20046;-66
2023/06/23 00:49:13;;;;;;;0.00;0.00;;;18.10;83.30;;;;;;5028840;28;20042;-66
2023/06/23 00:51:39;;;;;;;0.00;0.00;;;18.10;83.40;;;;;;5028942;28;20845;-65
2023/06/23 00:54:05;;;;;;;0.00;0.00;;;18.10;83.10;;;;;;4995503;28;20091;-65
2023/06/23 00:56:31;;;;;;;0.00;0.00;;;18.10;82.70;;;;;;5028407;28;20050;-66
2023/06/23 00:58:57;;;;;;;0.00;0.00;;;18.10;82.60;;;;;;5011493;28;20054;-65
2023/06/23 01:01:23;;;;;;;0.00;0.00;;;18.10;82.90;;;;;;5028631;28;20045;-65
2023/06/23 01:03:48;;;;;;;0.00;0.00;;;18.00;83.30;;;;;;5028667;28;20042;-66
2023/06/23 01:06:39;;;;;;;0.10;0.10;;;18.00;83.10;;;;;;5028807;28;20033;-65
2023/06/23 01:09:21;;;;;;;0.30;0.30;;;18.00;83.70;;;;;;5028262;28;20049;-66
2023/06/23 01:11:53;;;;;;;0.00;0.00;;;18.00;83.20;;;;;;5028721;28;20083;-66
2023/06/23 01:14:34;;;;;;;0.00;0.00;;;18.00;83.80;;;;;;5011587;28;20049;-65
2023/06/23 01:17:13;;;;;;;0.73;0.67;;;17.90;83.50;;;;;;5031374;28;20087;-65
2023/06/23 01:19:47;;;;;;;0.15;0.15;;;17.90;83.60;;;;;;5014588;28;20049;-65
2023/06/23 01:22:39;;;;;;;1.17;1.05;;;17.90;83.80;;;;;;5032376;28;20095;-65
2023/06/23 01:25:42;;;;;;;0.10;0.10;;;17.90;83.30;;;;;;5026120;28;20038;-65
2023/06/23 01:28:40;;;;;;;0.00;0.00;;;17.80;83.40;;;;;;4992177;28;20079;-66
2023/06/23 01:31:09;;;;;;;0.03;0.03;;;17.80;83.20;;;;;;5012675;28;20064;-66
2023/06/23 01:33:43;;;;;;;0.20;0.20;;;17.70;84.60;;;;;;5012102;28;20050;-66
2023/06/23 01:36:13;;;;;;;0.10;0.10;;;17.70;85.10;;;;;;5014644;28;20140;-66
2023/06/23 01:38:43;;;;;;;5.95;0.65;;;17.60;85.00;;;;;;5032057;28;20406;-66
2023/06/23 01:41:17;;;;;;;0.05;0.05;;;17.60;85.80;;;;;;5032060;28;20489;-66
2023/06/23 01:43:48;;;;;;;0.00;0.00;;;17.40;86.20;;;;;;5014624;28;20151;-67
2023/06/23 01:46:25;;;;;;;1.90;0.75;;;17.30;86.70;;;;;;5032053;28;20045;-67
2023/06/23 01:48:56;;;;;;;0.00;0.00;;;17.20;87.60;;;;;;5012191;28;20820;-67
2023/06/23 01:51:24;;;;;;;1.95;1.20;;;17.10;87.90;;;;;;5012405;28;20042;-66
2023/06/23 01:53:51;;;;;;;0.90;0.90;;;17.10;88.20;;;;;;5011949;28;20407;-67
2023/06/23 01:56:18;;;;;;;0.25;0.25;;;17.00;88.70;;;;;;4994510;28;20510;-66
2023/06/23 01:58:45;;;;;;;0.05;0.05;;;16.90;89.10;;;;;;4994647;28;20125;-66
2023/06/23 02:01:12;;;;;;;0.00;0.00;;;16.90;89.60;;;;;;5011987;28;20046;-66
2023/06/23 02:03:40;;;;;;;0.30;0.30;;;16.90;89.80;;;;;;5029874;28;20402;-66
2023/06/23 02:06:07;;;;;;;0.32;0.32;;;16.90;89.80;;;;;;5031714;28;20060;-66
2023/06/23 02:08:34;;;;;;;0.38;0.20;;;16.90;90.20;;;;;;5033583;28;20061;-66
2023/06/23 02:11:01;;;;;;;0.10;0.10;;;16.80;90.00;;;;;;5016967;28;20053;-67
2023/06/23 02:13:28;;;;;;;0.20;0.20;;;16.80;90.30;;;;;;5051575;28;20041;-66
2023/06/23 02:15:54;;;;;;;0.20;0.20;;;16.80;90.70;;;;;;5051231;28;20044;-66
2023/06/23 02:18:21;;;;;;;0.00;0.00;;;16.80;90.70;;;;;;5051670;28;20053;-66
2023/06/23 02:20:48;;;;;;;0.05;0.05;;;16.80;91.00;;;;;;5049650;28;20067;-66
2023/06/23 02:23:14;;;;;;;1.33;1.05;;;16.80;91.10;;;;;;5030485;28;20052;-67
2023/06/23 02:25:41;;;;;;;0.10;0.10;;;16.80;91.40;;;;;;5031324;28;20048;-67
2023/06/23 02:28:08;;;;;;;0.00;0.00;;;16.70;91.30;;;;;;5013879;28;20060;-66
2023/06/23 02:30:34;;;;;;;0.00;0.00;;;16.70;91.30;;;;;;5013505;28;20068;-66
2023/06/23 02:33:00;;;;;;;0.30;0.30;;;16.80;91.20;;;;;;5013519;28;20095;-65
2023/06/23 02:35:26;;;;;;;0.03;0.03;;;16.70;91.30;;;;;;5013423;28;20045;-65
2023/06/23 02:37:55;;;;;;;0.00;0.00;;;16.70;91.60;;;;;;5030690;28;20671;-66
2023/06/23 02:40:25;;;;;;;0.00;0.00;;;16.70;91.70;;;;;;5031170;28;20053;-66
2023/06/23 02:43:02;;;;;;;0.13;0.13;;;16.60;91.70;;;;;;5030719;28;20589;-66
2023/06/23 02:45:33;;;;;;;0.30;0.30;;;16.70;91.60;;;;;;5030815;28;20490;-66
2023/06/23 02:48:00;;;;;;;0.13;0.13;;;16.70;91.70;;;;;;4997303;28;20129;-66
2023/06/23 02:50:32;;;;;;;0.10;0.10;;;16.70;91.50;;;;;;5031180;28;20033;-66
2023/06/23 02:53:08;;;;;;;0.03;0.03;;;16.70;91.30;;;;;;5030931;28;20549;-67
2023/06/23 02:55:39;;;;;;;0.03;0.03;;;16.70;91.40;;;;;;5030500;28;21273;-66
2023/06/23 02:58:09;;;;;;;0.30;0.30;;;16.80;91.40;;;;;;5022057;28;20546;-66
2023/06/23 03:00:37;;;;;;;0.00;0.00;;;16.80;91.10;;;;;;4993156;28;20840;-66
2023/06/23 03:03:07;;;;;;;0.13;0.13;;;16.80;91.30;;;;;;4993160;28;20042;-67
2023/06/23 03:05:32;;;;;;;0.45;0.45;;;16.80;91.50;;;;;;5018236;28;20579;-66
2023/06/23 03:08:00;;;;;;;0.10;0.10;;;16.80;91.40;;;;;;5030456;28;20037;-66
2023/06/23 03:10:27;;;;;;;0.00;0.00;;;16.80;91.50;;;;;;5030210;28;20072;-66
2023/06/23 03:12:53;;;;;;;0.30;0.30;;;16.80;91.40;;;;;;5030456;28;20076;-66
2023/06/23 03:15:19;;;;;;;0.00;0.00;;;16.80;91.20;;;;;;5012532;28;20046;-67
2023/06/23 03:17:48;;;;;;;0.00;0.00;;;16.80;91.30;;;;;;5030559;28;20049;-67
2023/06/23 03:20:24;;;;;;;0.00;0.00;;;16.80;91.20;;;;;;5012476;28;20052;-66
2023/06/23 03:22:57;;;;;;;0.00;0.00;;;16.80;91.00;;;;;;5030052;28;20082;-66
2023/06/23 03:25:26;;;;;;;0.45;0.45;;;16.80;91.10;;;;;;5029717;28;20038;-66
2023/06/23 03:27:54;;;;;;;0.30;0.30;;;16.80;91.20;;;;;;5029689;28;20038;-66
2023/06/23 03:30:28;;;;;;;0.00;0.00;;;16.80;91.30;;;;;;5030441;28;20130;-66
2023/06/23 03:33:00;;;;;;;0.57;0.57;;;16.80;91.40;;;;;;5029700;28;20394;-66
2023/06/23 03:35:31;;;;;;;0.00;0.00;;;16.80;91.30;;;;;;5011991;28;20096;-66
2023/06/23 03:37:59;;;;;;;0.30;0.30;;;16.70;91.40;;;;;;5029952;28;20092;-66
2023/06/23 03:40:27;;;;;;;0.20;0.20;;;16.60;91.50;;;;;;5029578;28;20048;-66
2023/06/23 03:43:03;;;;;;;1.80;0.73;;;16.60;91.60;;;;;;5029479;28;20056;-66
2023/06/23 03:45:30;;;;;;;0.00;0.00;;;16.60;91.50;;;;;;5029800;28;20046;-66
2023/06/23 03:48:03;;;;;;;0.38;0.38;;;16.60;91.50;;;;;;5011800;28;20045;-66
2023/06/23 03:50:33;;;;;;;0.22;0.17;;;16.60;91.50;;;;;;5012049;28;20038;-66
2023/06/23 03:53:02;;;;;;;0.43;0.43;;;16.60;91.50;;;;;;5029748;28;20446;-66
2023/06/23 03:55:31;;;;;;;0.10;0.10;;;16.50;91.50;;;;;;5029796;28;20069;-66
2023/06/23 03:58:00;;;;;;;0.00;0.00;;;16.50;91.70;;;;;;5021788;28;20050;-66
2023/06/23 04:00:26;;;;;;;0.00;0.00;;;16.50;91.80;;;;;;5009910;28;20164;-66
2023/06/23 04:02:53;;;;;;;0.10;0.10;;;16.50;91.70;;;;;;5029038;28;20509;-66
2023/06/23 04:05:21;;;;;;;2.08;0.65;;;16.50;91.70;;;;;;5029675;28;20128;-66
2023/06/23 04:07:48;;;;;;;5.43;0.73;;;16.40;91.70;;;;;;5029358;28;20789;-65
2023/06/23 04:10:19;;;;;;;0.10;0.10;;;16.40;91.90;;;;;;5029094;28;20502;-66
2023/06/23 04:12:47;;;;;;;0.00;0.00;;;16.40;91.80;;;;;;5029485;28;20053;-66
2023/06/23 04:15:14;;;;;;;0.13;0.13;;;16.30;91.80;;;;;;5029203;28;20842;-65
2023/06/23 04:17:42;;;;;;;0.00;0.00;;;16.40;91.80;;;;;;5029567;28;20510;-65
2023/06/23 04:20:09;;;;;;;0.10;0.10;;;16.40;91.70;;;;;;5028666;28;20037;-65
2023/06/23 04:22:38;;;;;;;0.30;0.30;;;16.40;91.60;;;;;;5009269;28;20092;-65
2023/06/23 04:25:05;;;;;;;0.00;0.00;;;16.50;91.70;;;;;;5009787;28;20038;-66
2023/06/23 04:27:34;;;;;;;0.00;0.00;;;16.40;91.80;;;;;;5009734;28;20049;-65
2023/06/23 04:30:01;;;;;;;0.00;0.00;;;16.50;91.70;;;;;;5009411;28;20137;-64
2023/06/23 04:32:27;;;;;;;0.00;0.00;;;16.50;91.70;;;;;;4991740;28;20042;-65
2023/06/23 04:34:53;;;;;;;0.00;0.00;;;16.50;91.80;;;;;;4991664;28;20061;-65
2023/06/23 04:38:02;;;;;;;0.00;0.00;;;16.50;91.80;;;;;;5009313;28;20057;-66
2023/06/23 04:40:38;;;;;;;0.00;0.00;;;16.50;91.70;;;;;;4988235;28;20097;-65
2023/06/23 04:43:18;;;;;;;0.30;0.30;;;16.50;92.00;;;;;;5011226;28;20041;-65
2023/06/23 04:46:07;;;;;;;0.00;0.00;;;16.50;92.20;;;;;;5028954;28;20042;-65
2023/06/23 04:48:37;;;;;;;0.00;0.00;;;16.50;92.20;;;;;;5029212;28;20096;-66
2023/06/23 04:51:05;;;;;;;0.10;0.10;;;16.50;92.20;;;;;;5030310;28;20048;-66
2023/06/23 04:53:42;;;;;;;0.00;0.00;;;16.60;92.30;;;;;;5033003;28;20568;-65
2023/06/23 04:56:14;;;;;;;0.05;0.05;;;16.60;92.30;;;;;;5015388;28;20605;-65
2023/06/23 04:58:41;;;;;;;0.00;0.00;;;16.60;92.40;;;;;;5032919;28;20049;-65
2023/06/23 05:01:10;;;;;;;0.00;0.00;;;16.60;92.50;;;;;;5032790;28;20046;-65
2023/06/23 05:03:38;;;;;;;0.20;0.20;;;16.60;92.60;;;;;;4998400;28;20045;-65
2023/06/23 05:06:05;;;;;;;0.00;0.00;;;16.70;92.70;;;;;;5032929;28;20050;-65
2023/06/23 05:08:31;;;;;;;0.00;0.00;;;16.70;92.80;;;;;;5032479;28;20060;-66
2023/06/23 05:11:04;;;;;;;0.00;0.00;;;16.80;92.90;;;;;;5017551;28;20056;-66
2023/06/23 05:13:31;;;;;;;0.00;0.00;;;16.80;93.10;;;;;;5032572;28;20098;-65
2023/06/23 05:15:58;;;;;;;0.10;0.10;;;16.90;93.10;;;;;;5032311;28;20041;-65
2023/06/23 05:18:24;;;;;;;0.00;0.00;;;17.00;93.10;;;;;;5032903;28;20038;-66
2023/06/23 05:20:52;;;;;;;0.10;0.10;;;17.00;93.10;;;;;;5032795;28;20124;-65
2023/06/23 05:23:19;;;;;;;0.00;0.00;;;17.10;93.10;;;;;;5014812;28;20438;-65
2023/06/23 05:25:50;;;;;;;0.00;0.00;;;17.20;93.10;;;;;;5029919;28;20081;-65
2023/06/23 05:28:19;;;;;;;0.00;0.00;;;17.30;93.10;;;;;;5012502;28;20046;-65
2023/06/23 05:30:46;;;;;;;2.00;0.95;;;17.40;93.00;;;;;;5021350;28;20190;-65
2023/06/23 05:33:14;;;;;;;0.75;0.57;;;17.40;93.00;;;;;;5032191;28;20048;-66
2023/06/23 05:35:42;;;;;;;0.00;0.00;;;17.50;93.00;;;;;;5015896;28;20414;-65
2023/06/23 05:38:09;;;;;;;0.30;0.30;;;17.60;93.00;;;;;;5032151;28;20050;-66
2023/06/23 05:40:35;;;;;;;0.00;0.00;;;17.60;92.90;;;;;;5032931;28;20426;-65
2023/06/23 05:43:01;;;;;;;0.32;0.32;;;17.70;93.00;;;;;;5034331;28;20044;-65
2023/06/23 05:45:26;;;;;;;0.00;0.00;;;17.80;93.00;;;;;;5033503;28;20499;-65
2023/06/23 05:48:19;;;;;;;1.50;1.40;;;17.80;93.00;;;;;;5032452;28;20061;-66
2023/06/23 05:50:48;;;;;;;0.10;0.10;;;17.90;92.90;;;;;;5039146;28;20129;-66
2023/06/23 05:53:16;;;;;;;0.00;0.00;;;18.00;93.00;;;;;;5051737;28;20045;-66
2023/06/23 05:55:49;;;;;;;0.40;0.40;;;18.10;92.90;;;;;;5030306;28;20402;-65
2023/06/23 05:58:17;;;;;;;0.90;0.65;;;18.10;92.70;;;;;;5051369;28;20644;-65
2023/06/23 06:00:50;;;;;;;0.65;0.65;;;18.10;92.60;;;;;;5047173;28;20038;-65
2023/06/23 06:03:18;;;;;;;0.25;0.25;;;18.10;92.20;;;;;;5030953;28;20418;-65
2023/06/23 06:05:49;;;;;;;0.00;0.00;;;18.20;92.10;;;;;;5031528;28;20045;-65
2023/06/23 06:08:16;;;;;;;0.15;0.15;;;18.20;92.30;;;;;;5031586;28;20413;-65
2023/06/23 06:10:42;;;;;;;1.02;0.57;;;18.40;92.30;;;;;;5032394;28;20041;-65
2023/06/23 06:13:09;;;;;;;0.00;0.00;;;18.40;91.80;;;;;;5030864;28;20060;-66
2023/06/23 06:15:35;;;;;;;0.47;0.35;;;18.40;91.60;;;;;;5033014;28;20561;-65
2023/06/23 06:18:05;;;;;;;0.28;0.17;;;18.40;91.20;;;;;;5012112;28;20037;-65
2023/06/23 06:20:32;;;;;;;0.00;0.00;;;18.30;91.10;;;;;;5018432;28;20041;-66
2023/06/23 06:22:59;;;;;;;0.00;0.00;;;18.30;90.20;;;;;;5031291;28;20052;-66
2023/06/23 06:25:28;;;;;;;0.10;0.10;;;18.30;89.80;;;;;;5031280;28;20060;-66
2023/06/23 06:27:55;;;;;;;0.15;0.15;;;18.30;89.60;;;;;;5011392;28;20784;-66
2023/06/23 06:30:22;;;;;;;0.00;0.00;;;18.40;89.30;;;;;;5012341;28;20053;-66
2023/06/23 06:32:51;;;;;;;0.03;0.03;;;18.50;88.40;;;;;;5015488;28;20079;-66
2023/06/23 06:35:19;;;;;;;0.00;0.00;;;18.50;88.60;;;;;;5033535;28;20060;-66
2023/06/23 06:37:47;;;;;;;0.00;0.00;;;18.60;88.40;;;;;;5042343;28;20045;-66
2023/06/23 06:40:19;;;;;;;0.00;0.00;;;18.60;88.40;;;;;;5043450;28;20045;-65
2023/06/23 06:42:44;;;;;;;4.22;0.77;;;18.60;87.80;;;;;;5031824;28;20057;-65
2023/06/23 06:45:10;;;;;;;0.03;0.03;;;18.70;87.70;;;;;;5013455;28;20054;-65
2023/06/23 06:47:42;;;;;;;0.00;0.00;;;18.70;87.50;;;;;;5030779;28;20033;-65
2023/06/23 06:50:10;;;;;;;0.00;0.00;;;18.80;87.20;;;;;;5011344;28;20072;-66
2023/06/23 06:52:39;;;;;;;0.20;0.20;;;18.90;87.00;;;;;;5039511;28;20051;-66
2023/06/23 06:55:05;;;;;;;0.30;0.30;;;18.90;86.70;;;;;;5050926;28;20052;-66
2023/06/23 06:57:32;;;;;;;0.13;0.13;;;18.90;86.50;;;;;;5038640;28;20371;-67
2023/06/23 06:59:57;;;;;;;0.65;0.65;;;19.00;86.20;;;;;;5029692;28;20140;-66
2023/06/23 07:02:24;;;;;;;0.03;0.03;;;19.00;85.90;;;;;;5031687;28;20301;-66
2023/06/23 07:04:50;;;;;;;0.10;0.10;;;19.10;85.50;;;;;;5050367;28;20075;-66
2023/06/23 07:07:16;;;;;;;0.95;0.65;;;19.10;84.80;;;;;;5047419;28;20445;-66
2023/06/23 07:09:42;;;;;;;0.25;0.25;;;19.10;84.10;;;;;;5045235;28;20043;-66
2023/06/23 07:12:08;;;;;;;0.50;0.50;;;19.20;84.00;;;;;;5048289;28;20076;-66
2023/06/23 07:14:35;;;;;;;0.00;0.00;;;19.10;83.20;;;;;;5048603;28;20080;-67
2023/06/23 07:17:00;;;;;;;0.08;0.08;;;19.20;83.60;;;;;;5050339;28;20393;-66
2023/06/23 07:19:26;;;;;;;0.00;0.00;;;19.30;82.90;;;;;;5013693;28;20030;-65
2023/06/23 07:21:52;;;;;;;0.10;0.10;;;19.30;83.00;;;;;;5036656;28;20084;-65
2023/06/23 07:24:17;;;;;;;0.00;0.00;;;19.40;82.50;;;;;;5033248;28;20434;-65
2023/06/23 07:26:43;;;;;;;1.17;1.17;;;19.50;83.20;;;;;;5029695;28;20044;-66
2023/06/23 07:29:08;;;;;;;0.00;0.00;;;19.60;83.00;;;;;;5029858;28;20105;-66
2023/06/23 07:31:37;;;;;;;0.55;0.40;;;19.60;82.80;;;;;;5030814;28;20067;-65
2023/06/23 07:34:02;;;;;;;0.00;0.00;;;19.70;82.60;;;;;;5028391;28;20482;-65
2023/06/23 07:36:28;;;;;;;0.00;0.00;;;19.70;82.80;;;;;;5024102;28;20180;-65
2023/06/23 07:38:54;;;;;;;0.00;0.00;;;19.70;81.20;;;;;;5022297;28;20088;-65
2023/06/23 07:41:19;;;;;;;0.00;0.00;;;19.70;81.20;;;;;;5039666;28;20049;-65
2023/06/23 07:43:45;;;;;;;1.38;0.55;;;19.80;81.30;;;;;;5032571;28;20058;-65
2023/06/23 07:46:11;;;;;;;0.00;0.00;;;19.80;80.80;;;;;;5018308;28;20064;-66
2023/06/23 07:48:36;;;;;;;0.00;0.00;;;19.90;81.60;;;;;;5024543;28;20543;-65
2023/06/23 07:51:02;;;;;;;0.22;0.22;;;20.00;81.70;;;;;;5032413;28;20135;-65
2023/06/23 07:53:28;;;;;;;0.00;0.00;;;20.00;80.40;;;;;;5028078;28;20056;-65
2023/06/23 07:55:53;;;;;;;2.28;0.40;;;20.10;80.10;;;;;;5011374;28;20047;-66
2023/06/23 07:58:19;;;;;;;0.03;0.03;;;20.20;80.60;;;;;;5028899;28;20053;-65
2023/06/23 08:00:46;;;;;;;0.20;0.20;;;20.20;79.30;;;;;;5049036;28;20041;-66
2023/06/23 08:03:11;;;;;;;0.00;0.00;;;20.30;78.90;;;;;;5046930;28;20109;-76
2023/06/23 08:05:38;;;;;;;0.00;0.00;;;20.40;79.10;;;;;;5030280;28;20081;-66
2023/06/23 08:08:04;;;;;;;0.10;0.10;;;20.30;77.80;;;;;;5030697;28;20038;-64
2023/06/23 08:10:30;;;;;;;0.03;0.03;;;20.40;77.90;;;;;;5028806;28;20044;-66
2023/06/23 08:12:55;;;;;;;0.00;0.00;;;20.50;76.70;;;;;;5028760;28;20052;-66
2023/06/23 08:15:21;;;;;;;0.00;0.00;;;20.50;77.70;;;;;;5028121;28;20505;-65
2023/06/23 08:17:48;;;;;;;0.00;0.00;;;20.60;77.20;;;;;;5030562;28;20107;-66
2023/06/23 08:20:13;;;;;;;0.20;0.20;;;20.60;77.20;;;;;;5038526;28;20136;-65
2023/06/23 08:22:41;;;;;;;0.43;0.22;;;20.60;77.20;;;;;;5020450;28;20133;-65
2023/06/23 08:25:08;;;;;;;0.00;0.00;;;20.70;76.70;;;;;;5025668;28;20038;-66
2023/06/23 08:27:33;;;;;;;0.00;0.00;;;20.70;75.80;;;;;;5021896;28;20037;-66
2023/06/23 08:29:59;;;;;;;0.00;0.00;;;20.80;76.20;;;;;;5033560;28;20402;-66
2023/06/23 08:32:25;;;;;;;0.08;0.08;;;20.80;76.50;;;;;;5018037;28;20124;-65
2023/06/23 08:34:50;;;;;;;0.00;0.00;;;20.90;76.50;;;;;;5028301;28;20050;-65
2023/06/23 08:37:16;;;;;;;0.00;0.00;;;20.90;75.90;;;;;;5027902;28;20049;-64
2023/06/23 08:39:42;;;;;;;0.00;0.00;;;20.80;75.80;;;;;;5036230;28;20048;-65
2023/06/23 08:42:07;;;;;;;0.00;0.00;;;20.80;75.60;;;;;;5028226;28;20045;-66
2023/06/23 08:44:37;;;;;;;0.00;0.00;;;20.90;75.80;;;;;;5039195;28;20041;-65
2023/06/23 08:47:04;;;;;;;0.00;0.00;;;21.00;75.70;;;;;;5017992;28;20042;-65
2023/06/23 08:49:37;;;;;;;0.10;0.10;;;21.10;74.90;;;;;;5032987;28;20070;-66
2023/06/23 08:52:03;;;;;;;0.00;0.00;;;21.20;74.20;;;;;;5040088;28;20041;-66
2023/06/23 08:54:29;;;;;;;0.08;0.08;;;21.20;74.10;;;;;;5010467;28;20050;-66
2023/06/23 08:56:56;;;;;;;0.20;0.10;;;21.10;74.50;;;;;;5028414;28;20060;-66
2023/06/23 08:59:21;;;;;;;0.00;0.00;;;21.10;73.80;;;;;;5034021;28;20763;-66
2023/06/23 09:01:47;;;;;;;0.43;0.30;;;21.10;73.00;;;;;;5026826;28;20073;-66
2023/06/23 09:04:12;;;;;;;0.57;0.40;;;21.10;72.50;;;;;;5048584;28;20095;-66
2023/06/23 09:06:38;;;;;;;0.10;0.10;;;21.20;72.90;;;;;;5047670;28;20045;-67
2023/06/23 09:09:04;;;;;;;0.00;0.00;;;21.30;72.80;;;;;;5047230;28;20053;-66
2023/06/23 09:11:30;;;;;;;0.00;0.00;;;21.40;73.50;;;;;;5027920;28;20498;-66
2023/06/23 09:13:58;;;;;;;0.30;0.30;;;21.40;72.60;;;;;;5027547;28;20058;-66
2023/06/23 09:16:25;;;;;;;0.10;0.10;;;21.50;72.70;;;;;;5043045;28;20045;-66
2023/06/23 09:18:52;;;;;;;0.00;0.00;;;21.50;73.00;;;;;;5041657;28;20112;-66
2023/06/23 09:21:19;;;;;;;0.00;0.00;;;21.50;72.90;;;;;;5026575;28;20129;-67
2023/06/23 09:24:03;;;;;;;2.03;0.55;;;21.50;67.80;;;;;;5027231;28;20426;-66
2023/06/23 09:26:48;;;;;;;0.10;0.10;;;21.50;69.20;;;;;;5022639;28;20124;-65
2023/06/23 09:29:20;;;;;;;0.00;0.00;;;21.50;70.40;;;;;;4998856;28;20112;-66
2023/06/23 09:31:49;;;;;;;;;;;21.60;70.20;;;;;;5028140;28;20049;-65
2023/06/23 09:34:26;;;;;;;0.00;0.00;;;21.60;70.30;;;;;;4992794;28;20372;-66
2023/06/23 09:36:54;;;;;;;0.10;0.10;;;21.60;69.80;;;;;;5030784;28;20192;-67
2023/06/23 09:39:20;;;;;;;0.90;0.57;;;21.60;69.70;;;;;;5037444;28;20041;-66
2023/06/23 09:41:57;;;;;;;0.00;0.00;;;21.60;67.40;;;;;;5031094;28;20052;-66
2023/06/23 09:44:32;;;;;;;0.20;0.20;;;21.60;67.20;;;;;;5027395;28;20092;-67
2023/06/23 09:47:02;;;;;;;0.00;0.00;;;21.70;67.40;;;;;;5031075;28;20458;-67
2023/06/23 09:49:40;;;;;;;0.10;0.10;;;21.70;68.00;;;;;;5027678;28;20045;-66
2023/06/23 09:52:11;;;;;;;0.00;0.00;;;21.70;67.90;;;;;;5023328;28;20114;-66
2023/06/23 09:54:39;;;;;;;0.00;0.00;;;21.90;68.70;;;;;;5031328;28;20046;-66
2023/06/23 09:57:12;;;;;;;0.55;0.28;;;21.90;68.30;;;;;;5030713;28;20055;-66
2023/06/23 09:59:39;;;;;;;0.00;0.00;;;21.90;66.20;;;;;;5015998;28;20437;-66
2023/06/23 10:02:06;;;;;;;0.00;0.00;;;22.00;67.10;;;;;;5030781;28;20127;-66
2023/06/23 10:04:32;;;;;;;0.00;0.00;;;22.00;67.80;;;;;;5004527;28;20077;-66
2023/06/23 10:06:58;;;;;;;0.00;0.00;;;22.10;65.40;;;;;;5027681;28;20077;-66
2023/06/23 10:09:25;;;;;;;0.00;0.00;;;22.10;66.80;;;;;;5030502;28;20048;-66
2023/06/23 10:11:51;;;;;;;0.00;0.00;;;22.10;65.70;;;;;;5013935;28;20470;-66
2023/06/23 10:14:18;;;;;;;0.00;0.00;;;22.10;65.70;;;;;;5013714;28;20041;-66
2023/06/23 10:16:44;;;;;;;0.20;0.20;;;22.10;65.40;;;;;;5029580;28;20050;-66
2023/06/23 10:19:11;;;;;;;0.20;0.20;;;22.10;66.10;;;;;;5012271;28;20053;-67
2023/06/23 10:21:38;;;;;;;0.00;0.00;;;22.10;65.00;;;;;;5029607;28;20036;-67
2023/06/23 10:24:07;;;;;;;0.10;0.10;;;22.10;65.90;;;;;;5029722;28;20067;-67
2023/06/23 10:26:35;;;;;;;0.00;0.00;;;22.00;66.80;;;;;;5029639;28;20053;-67
2023/06/23 10:29:05;;;;;;;0.00;0.00;;;22.10;63.60;;;;;;5029806;28;20058;-67
2023/06/23 10:31:31;;;;;;;0.00;0.00;;;22.10;64.90;;;;;;5030805;28;20042;-67
2023/06/23 10:33:59;;;;;;;0.05;0.05;;;22.30;65.70;;;;;;5031450;28;20134;-66
2023/06/23 10:36:25;;;;;;;0.00;0.00;;;22.40;65.30;;;;;;5013087;28;20112;-66
2023/06/23 10:38:53;;;;;;;0.05;0.05;;;22.40;64.00;;;;;;5026590;28;20461;-67
2023/06/23 10:41:19;;;;;;;0.00;0.00;;;22.40;63.90;;;;;;5030570;28;20037;-67
2023/06/23 10:43:50;;;;;;;0.47;0.47;;;22.30;63.40;;;;;;5031703;28;20124;-65
2023/06/23 10:46:16;;;;;;;1.13;1.03;;;22.30;64.30;;;;;;5038896;28;20038;-65
2023/06/23 10:48:43;;;;;;;0.00;0.00;;;22.40;62.90;;;;;;5029830;28;20106;-65
2023/06/23 10:51:10;;;;;;;0.00;0.00;;;22.30;61.00;;;;;;5033240;28;20042;-65
2023/06/23 10:53:45;;;;;;;0.00;0.00;;;22.30;58.70;;;;;;5031790;28;20081;-65
2023/06/23 10:56:28;;;;;;;0.00;0.00;;;22.40;61.50;;;;;;5030781;28;20076;-66
2023/06/23 10:58:53;;;;;;;0.20;0.20;;;22.40;61.00;;;;;;5031444;28;20049;-65
2023/06/23 11:01:19;;;;;;;0.25;0.25;;;22.50;60.00;;;;;;5031040;28;20071;-65
2023/06/23 11:03:49;;;;;;;0.00;0.00;;;22.40;58.10;;;;;;5030485;28;20061;-65
2023/06/23 11:06:28;;;;;;;0.00;0.00;;;22.50;55.90;;;;;;5050274;28;20099;-65
2023/06/23 11:08:55;;;;;;;0.00;0.00;;;22.60;57.30;;;;;;5044209;28;20050;-65
2023/06/23 11:11:30;;;;;;;0.00;0.00;;;22.70;57.50;;;;;;5038086;28;20075;-66
2023/06/23 11:13:56;;;;;;;0.00;0.00;;;22.80;55.40;;;;;;5045978;28;20045;-66
2023/06/23 11:16:38;;;;;;;0.10;0.10;;;22.90;51.70;;;;;;5029889;28;20057;-65
2023/06/23 11:19:04;;;;;;;0.80;0.75;;;23.00;53.30;;;;;;5047475;28;20053;-65
2023/06/23 11:21:37;;;;;;;0.10;0.10;;;23.00;52.80;;;;;;5040337;28;20045;-65
2023/06/23 11:24:09;;;;;;;0.00;0.00;;;23.00;54.10;;;;;;5031459;28;20795;-64
2023/06/23 11:26:35;;;;;;;0.22;0.22;;;23.00;52.70;;;;;;5020737;28;20046;-65
2023/06/23 11:29:07;;;;;;;0.35;0.35;;;23.00;53.10;;;;;;5033737;28;20037;-65
2023/06/23 11:31:32;;;;;;;0.55;0.22;;;23.00;52.80;;;;;;5030893;28;20602;-66
2023/06/23 11:34:03;;;;;;;0.35;0.35;;;23.00;53.80;;;;;;5030612;28;20045;-65
2023/06/23 11:36:30;;;;;;;0.00;0.00;;;23.00;53.40;;;;;;5036252;28;20049;-66
2023/06/23 11:38:57;;;;;;;0.00;0.00;;;23.20;55.20;;;;;;5031311;28;20049;-65
2023/06/23 11:41:30;;;;;;;0.00;0.00;;;23.20;51.80;;;;;;5041179;28;20045;-65
2023/06/23 11:44:00;;;;;;;0.00;0.00;;;23.30;51.90;;;;;;5014519;28;20038;-66
2023/06/23 11:46:26;;;;;;;3.30;0.98;;;23.30;52.80;;;;;;5029723;28;20041;-65
2023/06/23 11:48:53;;;;;;;0.10;0.10;;;23.30;52.90;;;;;;5012262;28;20041;-66
2023/06/23 11:51:21;;;;;;;0.03;0.03;;;23.10;50.80;;;;;;5030285;28;20143;-66
2023/06/23 11:53:49;;;;;;;0.00;0.00;;;23.30;53.00;;;;;;5027664;28;20094;-65
2023/06/23 11:56:16;;;;;;;0.10;0.10;;;23.30;51.40;;;;;;5004456;28;20077;-66
2023/06/23 11:58:51;;;;;;;0.00;0.00;;;23.30;50.40;;;;;;5011507;28;20400;-66
2023/06/23 12:01:18;;;;;;;0.00;0.00;;;23.40;50.00;;;;;;5029090;28;20045;-65
2023/06/23 12:03:51;;;;;;;0.35;0.20;;;23.20;48.30;;;;;;5029268;28;20124;-66
2023/06/23 12:06:18;;;;;;;0.00;0.00;;;23.20;52.30;;;;;;5027922;28;20079;-66
2023/06/23 12:08:50;;;;;;;0.05;0.05;;;23.20;51.30;;;;;;5014658;28;20529;-66
2023/06/23 12:11:20;;;;;;;0.00;0.00;;;23.20;49.50;;;;;;5038991;28;20409;-65
2023/06/23 12:13:47;;;;;;;0.00;0.00;;;23.20;50.30;;;;;;5032583;28;20045;-65
2023/06/23 12:16:12;;;;;;;0.10;0.10;;;23.10;49.90;;;;;;5022245;28;20049;-65
2023/06/23 12:18:45;;;;;;;0.43;0.43;;;23.10;49.60;;;;;;5011488;28;20103;-64
2023/06/23 12:21:11;;;;;;;0.00;0.00;;;23.10;50.90;;;;;;5040843;28;20048;-64
2023/06/23 12:23:37;;;;;;;0.00;0.00;;;23.00;51.60;;;;;;5048710;28;20402;-64
2023/06/23 12:26:04;;;;;;;0.00;0.00;;;23.20;53.30;;;;;;5018112;28;20037;-65
2023/06/23 12:28:30;;;;;;;0.00;0.00;;;23.40;52.50;;;;;;5028403;28;20076;-64
2023/06/23 12:30:55;;;;;;;0.00;0.00;;;23.50;52.80;;;;;;5012877;28;20053;-64
2023/06/23 12:33:22;;;;;;;1.02;0.57;;;23.60;52.10;;;;;;5010304;28;20070;-65
2023/06/23 12:36:03;;;;;;;0.00;0.00;;;23.50;52.20;;;;;;4966233;23;20077;-65
2023/06/23 12:38:33;;;;;;;0.00;0.00;;;23.60;51.00;;;;;;5004195;28;20495;-65
2023/06/23 12:41:23;;;;;;;0.00;0.00;;;23.60;53.00;;;;;;5000081;28;20129;-64
2023/06/23 12:43:52;;;;;;;0.00;0.00;;;23.70;52.10;;;;;;5002712;28;20555;-64
2023/06/23 12:46:22;;;;;;;0.00;0.00;;;23.70;52.00;;;;;;5005922;28;20615;-64
2023/06/23 12:48:49;;;;;;;0.00;0.00;;;23.90;52.40;;;;;;5007737;28;20050;-64
2023/06/23 12:51:15;;;;;;;0.00;0.00;;;24.00;52.20;;;;;;5007842;28;20068;-66
2023/06/23 12:53:41;;;;;;;0.13;0.13;;;24.10;50.20;;;;;;4983820;28;21089;-64
2023/06/23 12:56:07;;;;;;;0.43;0.30;;;23.90;49.20;;;;;;5008851;28;20050;-64